sensor_id;sensor_type;location;lat;lon;timestamp;temperature;humidity
16267;DHT22;8241;48.786;9.250;2023-09-12T00:00:07;22.50;97.70
16267;DHT22;8241;48.786;9.250;2023-09-12T00:02:39;22.50;97.70
16267;DHT22;8241;48.786;9.250;2023-09-12T00:05:06;22.50;97.70
16267;DHT22;8241;48.786;9.250;2023-09-12T00:07:34;22.50;97.80
16267;DHT22;8241;48.786;9.250;2023-09-12T00:10:01;22.40;97.90
16267;DHT22;8241;48.786;9.250;2023-09-12T00:12:28;22.40;97.90
16267;DHT22;8241;48.786;9.250;2023-09-12T00:14:55;22.40;98.00
16267;DHT22;8241;48.786;9.250;2023-09-12T00:17:21;22.40;98.10
16267;DHT22;8241;48.786;9.250;2023-09-12T00:19:50;22.40;98.20
16267;DHT22;8241;48.786;9.250;2023-09-12T00:22:16;22.40;98.30
16267;DHT22;8241;48.786;9.250;2023-09-12T00:24:43;22.40;98.20
16267;DHT22;8241;48.786;9.250;2023-09-12T00:27:10;22.40;98.30
16267;DHT22;8241;48.786;9.250;2023-09-12T00:29:37;22.40;98.20
16267;DHT22;8241;48.786;9.250;2023-09-12T00:32:04;22.40;98.20
16267;DHT22;8241;48.786;9.250;2023-09-12T00:34:31;22.40;98.20
16267;DHT22;8241;48.786;9.250;2023-09-12T00:36:59;22.30;98.20
16267;DHT22;8241;48.786;9.250;2023-09-12T00:39:26;22.30;98.40
16267;DHT22;8241;48.786;9.250;2023-09-12T00:41:53;22.20;98.40
16267;DHT22;8241;48.786;9.250;2023-09-12T00:44:20;22.30;98.40
16267;DHT22;8241;48.786;9.250;2023-09-12T00:46:48;22.20;98.40
16267;DHT22;8241;48.786;9.250;2023-09-12T00:49:16;22.20;98.40
16267;DHT22;8241;48.786;9.250;2023-09-12T00:51:44;22.20;98.40
16267;DHT22;8241;48.786;9.250;2023-09-12T00:54:13;22.20;98.50
16267;DHT22;8241;48.786;9.250;2023-09-12T00:56:39;22.20;98.50
16267;DHT22;8241;48.786;9.250;2023-09-12T00:59:06;22.10;98.50
16267;DHT22;8241;48.786;9.250;2023-09-12T01:01:33;22.10;98.60
16267;DHT22;8241;48.786;9.250;2023-09-12T01:04:01;22.00;98.70
16267;DHT22;8241;48.786;9.250;2023-09-12T01:06:29;22.00;98.70
16267;DHT22;8241;48.786;9.250;2023-09-12T01:08:57;22.00;98.70
16267;DHT22;8241;48.786;9.250;2023-09-12T01:11:26;22.00;98.70
16267;DHT22;8241;48.786;9.250;2023-09-12T01:13:53;22.00;98.70
16267;DHT22;8241;48.786;9.250;2023-09-12T01:16:20;22.00;98.60
16267;DHT22;8241;48.786;9.250;2023-09-12T01:18:47;21.90;98.60
16267;DHT22;8241;48.786;9.250;2023-09-12T01:24:41;21.90;98.60
16267;DHT22;8241;48.786;9.250;2023-09-12T01:27:25;21.80;98.60
16267;DHT22;8241;48.786;9.250;2023-09-12T01:29:56;21.80;98.60
16267;DHT22;8241;48.786;9.250;2023-09-12T01:32:24;21.80;98.70
16267;DHT22;8241;48.786;9.250;2023-09-12T01:34:50;21.80;98.70
16267;DHT22;8241;48.786;9.250;2023-09-12T01:37:17;21.80;98.70
16267;DHT22;8241;48.786;9.250;2023-09-12T01:39:44;21.80;98.80
16267;DHT22;8241;48.786;9.250;2023-09-12T01:42:14;21.80;98.80
16267;DHT22;8241;48.786;9.250;2023-09-12T01:44:44;21.80;98.90
16267;DHT22;8241;48.786;9.250;2023-09-12T01:47:12;21.70;98.80
16267;DHT22;8241;48.786;9.250;2023-09-12T01:49:41;21.70;98.90
16267;DHT22;8241;48.786;9.250;2023-09-12T01:52:09;21.70;98.80
16267;DHT22;8241;48.786;9.250;2023-09-12T01:54:36;21.60;99.20
16267;DHT22;8241;48.786;9.250;2023-09-12T01:57:04;21.60;99.10
16267;DHT22;8241;48.786;9.250;2023-09-12T01:59:31;21.50;99.10
16267;DHT22;8241;48.786;9.250;2023-09-12T02:01:59;21.50;99.20
16267;DHT22;8241;48.786;9.250;2023-09-12T02:04:26;21.50;99.30
16267;DHT22;8241;48.786;9.250;2023-09-12T02:06:54;21.50;99.30
16267;DHT22;8241;48.786;9.250;2023-09-12T02:09:20;21.50;99.30
16267;DHT22;8241;48.786;9.250;2023-09-12T02:11:49;21.50;99.30
16267;DHT22;8241;48.786;9.250;2023-09-12T02:14:15;21.40;99.30
16267;DHT22;8241;48.786;9.250;2023-09-12T02:16:43;21.40;99.40
16267;DHT22;8241;48.786;9.250;2023-09-12T02:19:12;21.40;99.40
16267;DHT22;8241;48.786;9.250;2023-09-12T02:21:38;21.40;99.40
16267;DHT22;8241;48.786;9.250;2023-09-12T02:24:06;21.30;99.30
16267;DHT22;8241;48.786;9.250;2023-09-12T02:26:33;21.30;99.20
16267;DHT22;8241;48.786;9.250;2023-09-12T02:29:02;21.30;99.20
16267;DHT22;8241;48.786;9.250;2023-09-12T02:31:31;21.30;99.20
16267;DHT22;8241;48.786;9.250;2023-09-12T02:33:58;21.20;99.20
16267;DHT22;8241;48.786;9.250;2023-09-12T02:36:26;21.20;99.20
16267;DHT22;8241;48.786;9.250;2023-09-12T02:38:53;21.20;99.20
16267;DHT22;8241;48.786;9.250;2023-09-12T02:41:20;21.20;99.20
16267;DHT22;8241;48.786;9.250;2023-09-12T02:43:46;21.20;99.10
16267;DHT22;8241;48.786;9.250;2023-09-12T02:46:13;21.20;99.10
16267;DHT22;8241;48.786;9.250;2023-09-12T02:48:40;21.20;99.00
16267;DHT22;8241;48.786;9.250;2023-09-12T02:51:07;21.20;99.10
16267;DHT22;8241;48.786;9.250;2023-09-12T02:53:35;21.20;99.30
16267;DHT22;8241;48.786;9.250;2023-09-12T02:56:02;21.20;99.40
16267;DHT22;8241;48.786;9.250;2023-09-12T02:58:29;21.20;99.50
16267;DHT22;8241;48.786;9.250;2023-09-12T03:00:55;21.20;99.70
16267;DHT22;8241;48.786;9.250;2023-09-12T03:03:22;21.10;99.80
16267;DHT22;8241;48.786;9.250;2023-09-12T03:05:56;21.10;99.90
16267;DHT22;8241;48.786;9.250;2023-09-12T03:08:23;21.10;99.90
16267;DHT22;8241;48.786;9.250;2023-09-12T03:10:54;21.10;99.90
16267;DHT22;8241;48.786;9.250;2023-09-12T03:13:20;21.00;99.90
16267;DHT22;8241;48.786;9.250;2023-09-12T03:15:47;21.00;99.90
16267;DHT22;8241;48.786;9.250;2023-09-12T03:18:14;21.00;99.90
16267;DHT22;8241;48.786;9.250;2023-09-12T03:20:40;20.90;99.90
16267;DHT22;8241;48.786;9.250;2023-09-12T03:23:07;20.90;99.90
16267;DHT22;8241;48.786;9.250;2023-09-12T03:25:35;20.90;99.90
16267;DHT22;8241;48.786;9.250;2023-09-12T03:28:04;20.90;99.90
16267;DHT22;8241;48.786;9.250;2023-09-12T03:30:32;20.80;99.90
16267;DHT22;8241;48.786;9.250;2023-09-12T03:32:59;20.80;99.90
16267;DHT22;8241;48.786;9.250;2023-09-12T03:35:26;20.80;99.90
16267;DHT22;8241;48.786;9.250;2023-09-12T03:37:53;20.80;99.90
16267;DHT22;8241;48.786;9.250;2023-09-12T03:40:20;20.80;99.90
16267;DHT22;8241;48.786;9.250;2023-09-12T03:42:46;20.70;99.90
16267;DHT22;8241;48.786;9.250;2023-09-12T03:45:15;20.70;99.90
16267;DHT22;8241;48.786;9.250;2023-09-12T03:47:42;20.70;99.90
16267;DHT22;8241;48.786;9.250;2023-09-12T03:50:12;20.70;99.90
16267;DHT22;8241;48.786;9.250;2023-09-12T03:52:39;20.60;99.90
16267;DHT22;8241;48.786;9.250;2023-09-12T03:55:06;20.70;99.90
16267;DHT22;8241;48.786;9.250;2023-09-12T03:57:33;20.70;99.90
16267;DHT22;8241;48.786;9.250;2023-09-12T04:00:00;20.70;99.90
16267;DHT22;8241;48.786;9.250;2023-09-12T04:02:40;20.60;99.90
16267;DHT22;8241;48.786;9.250;2023-09-12T04:05:08;20.60;99.90
16267;DHT22;8241;48.786;9.250;2023-09-12T04:07:36;20.70;99.90
16267;DHT22;8241;48.786;9.250;2023-09-12T04:10:03;20.60;99.90
16267;DHT22;8241;48.786;9.250;2023-09-12T04:12:30;20.60;99.90
16267;DHT22;8241;48.786;9.250;2023-09-12T04:14:57;20.60;99.90
16267;DHT22;8241;48.786;9.250;2023-09-12T04:17:23;20.60;99.90
16267;DHT22;8241;48.786;9.250;2023-09-12T04:19:51;20.50;99.90
16267;DHT22;8241;48.786;9.250;2023-09-12T04:22:18;20.50;99.90
16267;DHT22;8241;48.786;9.250;2023-09-12T04:24:45;20.50;99.90
16267;DHT22;8241;48.786;9.250;2023-09-12T04:27:12;20.50;99.90
16267;DHT22;8241;48.786;9.250;2023-09-12T04:29:39;20.50;99.90
16267;DHT22;8241;48.786;9.250;2023-09-12T04:32:06;20.40;99.90
16267;DHT22;8241;48.786;9.250;2023-09-12T04:34:33;20.50;99.90
16267;DHT22;8241;48.786;9.250;2023-09-12T04:37:02;20.40;99.90
16267;DHT22;8241;48.786;9.250;2023-09-12T04:39:31;20.40;99.90
16267;DHT22;8241;48.786;9.250;2023-09-12T04:41:58;20.40;99.90
16267;DHT22;8241;48.786;9.250;2023-09-12T04:44:25;20.30;99.90
16267;DHT22;8241;48.786;9.250;2023-09-12T04:46:52;20.30;99.90
16267;DHT22;8241;48.786;9.250;2023-09-12T04:49:18;20.30;99.90
16267;DHT22;8241;48.786;9.250;2023-09-12T04:51:46;20.30;99.90
16267;DHT22;8241;48.786;9.250;2023-09-12T04:54:14;20.30;99.90
16267;DHT22;8241;48.786;9.250;2023-09-12T04:56:41;20.30;99.90
16267;DHT22;8241;48.786;9.250;2023-09-12T04:59:08;20.30;99.90
16267;DHT22;8241;48.786;9.250;2023-09-12T05:01:34;20.20;99.90
16267;DHT22;8241;48.786;9.250;2023-09-12T05:04:02;20.30;99.90
16267;DHT22;8241;48.786;9.250;2023-09-12T05:06:29;20.30;99.90
16267;DHT22;8241;48.786;9.250;2023-09-12T05:08:57;20.30;99.90
16267;DHT22;8241;48.786;9.250;2023-09-12T05:11:25;20.30;99.90
16267;DHT22;8241;48.786;9.250;2023-09-12T05:13:52;20.40;99.90
16267;DHT22;8241;48.786;9.250;2023-09-12T05:16:19;20.40;99.90
16267;DHT22;8241;48.786;9.250;2023-09-12T05:18:46;20.40;99.90
16267;DHT22;8241;48.786;9.250;2023-09-12T05:21:15;20.40;99.90
16267;DHT22;8241;48.786;9.250;2023-09-12T05:23:41;20.40;99.90
16267;DHT22;8241;48.786;9.250;2023-09-12T05:26:08;20.40;99.90
16267;DHT22;8241;48.786;9.250;2023-09-12T05:28:36;20.40;99.90
16267;DHT22;8241;48.786;9.250;2023-09-12T05:31:03;20.40;99.90
16267;DHT22;8241;48.786;9.250;2023-09-12T05:33:31;20.40;99.90
16267;DHT22;8241;48.786;9.250;2023-09-12T05:35:58;20.30;99.90
16267;DHT22;8241;48.786;9.250;2023-09-12T05:38:25;20.30;99.90
16267;DHT22;8241;48.786;9.250;2023-09-12T05:40:52;20.30;99.90
16267;DHT22;8241;48.786;9.250;2023-09-12T05:43:19;20.30;99.90
16267;DHT22;8241;48.786;9.250;2023-09-12T05:45:47;20.30;99.90
16267;DHT22;8241;48.786;9.250;2023-09-12T05:48:14;20.30;99.90
16267;DHT22;8241;48.786;9.250;2023-09-12T05:50:41;20.30;99.90
16267;DHT22;8241;48.786;9.250;2023-09-12T05:53:08;20.30;99.90
16267;DHT22;8241;48.786;9.250;2023-09-12T05:55:35;20.30;99.90
16267;DHT22;8241;48.786;9.250;2023-09-12T05:58:02;20.30;99.90
16267;DHT22;8241;48.786;9.250;2023-09-12T06:00:31;20.40;99.90
16267;DHT22;8241;48.786;9.250;2023-09-12T06:02:59;20.40;99.90
16267;DHT22;8241;48.786;9.250;2023-09-12T06:05:26;20.40;99.90
16267;DHT22;8241;48.786;9.250;2023-09-12T06:07:53;20.50;99.90
16267;DHT22;8241;48.786;9.250;2023-09-12T06:10:20;20.50;99.90
16267;DHT22;8241;48.786;9.250;2023-09-12T06:12:47;20.60;99.90
16267;DHT22;8241;48.786;9.250;2023-09-12T06:15:15;20.60;99.90
16267;DHT22;8241;48.786;9.250;2023-09-12T06:17:41;20.70;99.90
16267;DHT22;8241;48.786;9.250;2023-09-12T06:20:10;20.70;99.90
16267;DHT22;8241;48.786;9.250;2023-09-12T06:22:37;20.80;99.90
16267;DHT22;8241;48.786;9.250;2023-09-12T06:25:05;20.80;99.90
16267;DHT22;8241;48.786;9.250;2023-09-12T06:27:31;20.80;99.90
16267;DHT22;8241;48.786;9.250;2023-09-12T06:29:58;20.90;99.90
16267;DHT22;8241;48.786;9.250;2023-09-12T06:32:25;20.90;99.80
16267;DHT22;8241;48.786;9.250;2023-09-12T06:34:52;21.10;99.70
16267;DHT22;8241;48.786;9.250;2023-09-12T06:37:20;21.10;99.50
16267;DHT22;8241;48.786;9.250;2023-09-12T06:39:49;21.20;99.50
16267;DHT22;8241;48.786;9.250;2023-09-12T06:42:16;21.20;99.20
16267;DHT22;8241;48.786;9.250;2023-09-12T06:44:43;21.30;99.20
16267;DHT22;8241;48.786;9.250;2023-09-12T06:47:10;21.40;99.00
16267;DHT22;8241;48.786;9.250;2023-09-12T06:49:37;21.50;98.90
16267;DHT22;8241;48.786;9.250;2023-09-12T06:52:04;21.50;98.80
16267;DHT22;8241;48.786;9.250;2023-09-12T06:54:34;21.50;98.90
16267;DHT22;8241;48.786;9.250;2023-09-12T06:57:01;21.60;98.80
16267;DHT22;8241;48.786;9.250;2023-09-12T06:59:28;21.60;98.60
16267;DHT22;8241;48.786;9.250;2023-09-12T07:01:55;21.70;98.70
16267;DHT22;8241;48.786;9.250;2023-09-12T07:04:22;21.70;98.60
16267;DHT22;8241;48.786;9.250;2023-09-12T07:06:48;21.80;98.30
16267;DHT22;8241;48.786;9.250;2023-09-12T07:09:16;21.90;98.20
16267;DHT22;8241;48.786;9.250;2023-09-12T07:11:46;22.00;98.00
16267;DHT22;8241;48.786;9.250;2023-09-12T07:14:13;22.00;98.00
16267;DHT22;8241;48.786;9.250;2023-09-12T07:16:40;22.10;98.00
16267;DHT22;8241;48.786;9.250;2023-09-12T07:19:07;22.20;97.80
16267;DHT22;8241;48.786;9.250;2023-09-12T07:21:35;22.20;97.70
16267;DHT22;8241;48.786;9.250;2023-09-12T07:24:02;22.30;97.80
16267;DHT22;8241;48.786;9.250;2023-09-12T07:26:29;22.40;97.70
16267;DHT22;8241;48.786;9.250;2023-09-12T07:28:57;22.50;97.60
16267;DHT22;8241;48.786;9.250;2023-09-12T07:31:28;22.60;97.40
16267;DHT22;8241;48.786;9.250;2023-09-12T07:33:54;22.70;97.20
16267;DHT22;8241;48.786;9.250;2023-09-12T07:36:21;22.90;96.90
16267;DHT22;8241;48.786;9.250;2023-09-12T07:38:48;23.00;96.80
16267;DHT22;8241;48.786;9.250;2023-09-12T07:41:15;23.00;96.70
16267;DHT22;8241;48.786;9.250;2023-09-12T07:43:41;22.80;96.80
16267;DHT22;8241;48.786;9.250;2023-09-12T07:46:10;22.80;97.20
16267;DHT22;8241;48.786;9.250;2023-09-12T07:48:37;22.90;97.00
16267;DHT22;8241;48.786;9.250;2023-09-12T07:51:11;22.90;97.10
16267;DHT22;8241;48.786;9.250;2023-09-12T07:53:39;23.00;97.50
16267;DHT22;8241;48.786;9.250;2023-09-12T07:56:07;23.10;97.10
16267;DHT22;8241;48.786;9.250;2023-09-12T07:58:34;23.30;96.80
16267;DHT22;8241;48.786;9.250;2023-09-12T08:01:04;23.40;96.50
16267;DHT22;8241;48.786;9.250;2023-09-12T08:03:33;23.40;96.60
16267;DHT22;8241;48.786;9.250;2023-09-12T08:06:00;23.20;96.80
16267;DHT22;8241;48.786;9.250;2023-09-12T08:08:27;23.40;96.90
16267;DHT22;8241;48.786;9.250;2023-09-12T08:10:53;23.50;96.70
16267;DHT22;8241;48.786;9.250;2023-09-12T08:13:20;23.60;96.50
16267;DHT22;8241;48.786;9.250;2023-09-12T08:15:47;23.90;96.50
16267;DHT22;8241;48.786;9.250;2023-09-12T08:18:14;24.40;95.70
16267;DHT22;8241;48.786;9.250;2023-09-12T08:20:42;24.60;95.10
16267;DHT22;8241;48.786;9.250;2023-09-12T08:23:09;25.00;94.40
16267;DHT22;8241;48.786;9.250;2023-09-12T08:25:36;25.20;93.70
16267;DHT22;8241;48.786;9.250;2023-09-12T08:28:03;25.30;93.70
16267;DHT22;8241;48.786;9.250;2023-09-12T08:30:30;25.80;93.60
16267;DHT22;8241;48.786;9.250;2023-09-12T08:32:56;26.40;92.30
16267;DHT22;8241;48.786;9.250;2023-09-12T08:35:23;26.40;92.30
16267;DHT22;8241;48.786;9.250;2023-09-12T08:37:53;26.40;92.30
16267;DHT22;8241;48.786;9.250;2023-09-12T08:40:20;26.60;92.20
16267;DHT22;8241;48.786;9.250;2023-09-12T08:42:47;26.50;92.00
16267;DHT22;8241;48.786;9.250;2023-09-12T08:45:17;26.20;92.30
16267;DHT22;8241;48.786;9.250;2023-09-12T08:47:45;25.80;92.90
16267;DHT22;8241;48.786;9.250;2023-09-12T08:50:14;25.40;93.50
16267;DHT22;8241;48.786;9.250;2023-09-12T08:52:42;25.80;93.50
16267;DHT22;8241;48.786;9.250;2023-09-12T08:55:11;27.60;91.70
16267;DHT22;8241;48.786;9.250;2023-09-12T08:57:40;29.90;86.10
16267;DHT22;8241;48.786;9.250;2023-09-12T09:00:08;31.20;81.90
16267;DHT22;8241;48.786;9.250;2023-09-12T09:02:36;31.50;81.00
16267;DHT22;8241;48.786;9.250;2023-09-12T09:05:04;30.70;82.10
16267;DHT22;8241;48.786;9.250;2023-09-12T09:07:33;29.90;84.20
16267;DHT22;8241;48.786;9.250;2023-09-12T09:10:02;28.90;86.40
16267;DHT22;8241;48.786;9.250;2023-09-12T09:12:31;28.10;89.30
16267;DHT22;8241;48.786;9.250;2023-09-12T09:14:58;27.60;90.00
16267;DHT22;8241;48.786;9.250;2023-09-12T09:17:26;28.00;89.40
16267;DHT22;8241;48.786;9.250;2023-09-12T09:19:53;29.40;86.30
16267;DHT22;8241;48.786;9.250;2023-09-12T09:22:20;31.20;82.00
16267;DHT22;8241;48.786;9.250;2023-09-12T09:24:48;33.10;77.50
16267;DHT22;8241;48.786;9.250;2023-09-12T09:30:11;33.80;75.20
16267;DHT22;8241;48.786;9.250;2023-09-12T09:32:38;34.20;73.80
16267;DHT22;8241;48.786;9.250;2023-09-12T09:35:06;34.70;72.70
16267;DHT22;8241;48.786;9.250;2023-09-12T09:37:33;34.10;73.40
16267;DHT22;8241;48.786;9.250;2023-09-12T09:40:00;33.50;75.40
16267;DHT22;8241;48.786;9.250;2023-09-12T09:42:29;33.30;75.80
16267;DHT22;8241;48.786;9.250;2023-09-12T09:44:56;32.90;76.80
16267;DHT22;8241;48.786;9.250;2023-09-12T09:47:24;32.00;79.80
16267;DHT22;8241;48.786;9.250;2023-09-12T09:49:51;31.40;80.00
16267;DHT22;8241;48.786;9.250;2023-09-12T09:52:25;30.90;82.30
16267;DHT22;8241;48.786;9.250;2023-09-12T09:54:52;30.50;82.40
16267;DHT22;8241;48.786;9.250;2023-09-12T09:57:19;30.10;84.20
16267;DHT22;8241;48.786;9.250;2023-09-12T09:59:49;29.80;83.10
16267;DHT22;8241;48.786;9.250;2023-09-12T10:02:18;29.70;84.30
16267;DHT22;8241;48.786;9.250;2023-09-12T10:04:49;29.70;84.10
16267;DHT22;8241;48.786;9.250;2023-09-12T10:07:17;29.50;83.40
16267;DHT22;8241;48.786;9.250;2023-09-12T10:09:45;29.30;83.70
16267;DHT22;8241;48.786;9.250;2023-09-12T10:12:13;29.30;84.40
16267;DHT22;8241;48.786;9.250;2023-09-12T10:14:40;29.30;84.60
16267;DHT22;8241;48.786;9.250;2023-09-12T10:17:12;29.50;84.80
16267;DHT22;8241;48.786;9.250;2023-09-12T10:19:43;29.50;84.40
16267;DHT22;8241;48.786;9.250;2023-09-12T10:22:21;29.50;84.90
16267;DHT22;8241;48.786;9.250;2023-09-12T10:24:50;29.50;86.80
16267;DHT22;8241;48.786;9.250;2023-09-12T10:27:19;29.50;85.60
16267;DHT22;8241;48.786;9.250;2023-09-12T10:29:46;29.60;86.50
16267;DHT22;8241;48.786;9.250;2023-09-12T10:32:15;29.40;86.00
16267;DHT22;8241;48.786;9.250;2023-09-12T10:34:44;29.50;86.10
16267;DHT22;8241;48.786;9.250;2023-09-12T10:37:16;29.60;86.80
16267;DHT22;8241;48.786;9.250;2023-09-12T10:39:43;29.60;85.20
16267;DHT22;8241;48.786;9.250;2023-09-12T10:42:10;29.60;85.20
16267;DHT22;8241;48.786;9.250;2023-09-12T10:44:38;29.60;85.60
16267;DHT22;8241;48.786;9.250;2023-09-12T10:47:06;29.50;84.90
16267;DHT22;8241;48.786;9.250;2023-09-12T10:49:33;29.50;85.00
16267;DHT22;8241;48.786;9.250;2023-09-12T10:52:00;29.50;84.60
16267;DHT22;8241;48.786;9.250;2023-09-12T10:54:37;29.50;84.70
16267;DHT22;8241;48.786;9.250;2023-09-12T10:57:05;29.70;84.70
16267;DHT22;8241;48.786;9.250;2023-09-12T10:59:32;29.90;83.80
16267;DHT22;8241;48.786;9.250;2023-09-12T11:02:28;29.70;84.80
16267;DHT22;8241;48.786;9.250;2023-09-12T11:04:56;29.70;84.60
16267;DHT22;8241;48.786;9.250;2023-09-12T11:07:44;29.80;84.40
16267;DHT22;8241;48.786;9.250;2023-09-12T11:10:20;29.90;84.70
16267;DHT22;8241;48.786;9.250;2023-09-12T11:12:49;29.90;85.30
16267;DHT22;8241;48.786;9.250;2023-09-12T11:15:16;29.90;84.90
16267;DHT22;8241;48.786;9.250;2023-09-12T11:17:44;30.00;85.70
16267;DHT22;8241;48.786;9.250;2023-09-12T11:20:12;29.90;83.10
16267;DHT22;8241;48.786;9.250;2023-09-12T11:22:41;29.90;81.10
16267;DHT22;8241;48.786;9.250;2023-09-12T11:25:20;29.90;81.10
16267;DHT22;8241;48.786;9.250;2023-09-12T11:28:04;29.80;82.40
16267;DHT22;8241;48.786;9.250;2023-09-12T11:30:31;29.80;82.50
16267;DHT22;8241;48.786;9.250;2023-09-12T11:32:59;29.90;84.50
16267;DHT22;8241;48.786;9.250;2023-09-12T11:35:29;30.00;84.20
16267;DHT22;8241;48.786;9.250;2023-09-12T11:38:02;30.00;83.80
16267;DHT22;8241;48.786;9.250;2023-09-12T11:40:43;30.10;82.30
16267;DHT22;8241;48.786;9.250;2023-09-12T11:43:20;29.90;81.50
16267;DHT22;8241;48.786;9.250;2023-09-12T11:45:47;30.00;82.40
16267;DHT22;8241;48.786;9.250;2023-09-12T11:48:14;30.00;82.40
16267;DHT22;8241;48.786;9.250;2023-09-12T11:50:41;29.90;81.20
16267;DHT22;8241;48.786;9.250;2023-09-12T11:53:10;29.90;80.90
16267;DHT22;8241;48.786;9.250;2023-09-12T11:55:43;29.90;81.00
16267;DHT22;8241;48.786;9.250;2023-09-12T11:58:10;29.90;81.20
16267;DHT22;8241;48.786;9.250;2023-09-12T12:00:37;30.10;80.80
16267;DHT22;8241;48.786;9.250;2023-09-12T12:03:08;30.10;82.30
16267;DHT22;8241;48.786;9.250;2023-09-12T12:05:36;30.10;81.80
16267;DHT22;8241;48.786;9.250;2023-09-12T12:08:03;30.10;81.20
16267;DHT22;8241;48.786;9.250;2023-09-12T12:10:30;30.20;81.10
16267;DHT22;8241;48.786;9.250;2023-09-12T12:12:58;30.10;79.90
16267;DHT22;8241;48.786;9.250;2023-09-12T12:15:25;30.10;81.40
16267;DHT22;8241;48.786;9.250;2023-09-12T12:17:54;30.10;80.10
16267;DHT22;8241;48.786;9.250;2023-09-12T12:20:22;30.20;80.10
16267;DHT22;8241;48.786;9.250;2023-09-12T12:22:49;30.20;80.70
16267;DHT22;8241;48.786;9.250;2023-09-12T12:25:17;30.20;80.70
16267;DHT22;8241;48.786;9.250;2023-09-12T12:27:44;30.20;79.10
16267;DHT22;8241;48.786;9.250;2023-09-12T12:30:13;30.30;79.90
16267;DHT22;8241;48.786;9.250;2023-09-12T12:32:40;30.20;80.40
16267;DHT22;8241;48.786;9.250;2023-09-12T12:35:07;30.30;79.90
16267;DHT22;8241;48.786;9.250;2023-09-12T12:37:36;30.30;79.90
16267;DHT22;8241;48.786;9.250;2023-09-12T12:40:04;30.30;77.80
16267;DHT22;8241;48.786;9.250;2023-09-12T12:42:34;30.30;76.60
16267;DHT22;8241;48.786;9.250;2023-09-12T12:45:05;30.30;77.30
16267;DHT22;8241;48.786;9.250;2023-09-12T12:47:38;30.30;77.40
16267;DHT22;8241;48.786;9.250;2023-09-12T12:50:08;30.30;76.80
16267;DHT22;8241;48.786;9.250;2023-09-12T12:52:35;30.30;77.10
16267;DHT22;8241;48.786;9.250;2023-09-12T12:55:04;30.30;77.00
16267;DHT22;8241;48.786;9.250;2023-09-12T12:57:31;30.30;77.10
16267;DHT22;8241;48.786;9.250;2023-09-12T12:59:58;30.40;76.80
16267;DHT22;8241;48.786;9.250;2023-09-12T13:02:25;30.40;75.80
16267;DHT22;8241;48.786;9.250;2023-09-12T13:04:53;30.40;75.80
16267;DHT22;8241;48.786;9.250;2023-09-12T13:07:20;30.40;75.60
16267;DHT22;8241;48.786;9.250;2023-09-12T13:09:47;30.50;76.30
16267;DHT22;8241;48.786;9.250;2023-09-12T13:12:13;30.60;75.50
16267;DHT22;8241;48.786;9.250;2023-09-12T13:14:43;30.70;75.30
16267;DHT22;8241;48.786;9.250;2023-09-12T13:17:10;30.70;75.00
16267;DHT22;8241;48.786;9.250;2023-09-12T13:19:37;30.70;75.10
16267;DHT22;8241;48.786;9.250;2023-09-12T13:22:05;30.80;75.20
16267;DHT22;8241;48.786;9.250;2023-09-12T13:24:31;30.90;74.50
16267;DHT22;8241;48.786;9.250;2023-09-12T13:26:58;30.90;73.00
16267;DHT22;8241;48.786;9.250;2023-09-12T13:29:25;30.90;73.40
16267;DHT22;8241;48.786;9.250;2023-09-12T13:31:52;30.90;73.20
16267;DHT22;8241;48.786;9.250;2023-09-12T13:34:18;30.90;72.60
16267;DHT22;8241;48.786;9.250;2023-09-12T13:36:45;30.80;73.30
16267;DHT22;8241;48.786;9.250;2023-09-12T13:39:13;30.80;73.60
16267;DHT22;8241;48.786;9.250;2023-09-12T13:41:40;30.80;74.10
16267;DHT22;8241;48.786;9.250;2023-09-12T13:44:07;30.70;75.00
16267;DHT22;8241;48.786;9.250;2023-09-12T13:46:34;30.90;76.30
16267;DHT22;8241;48.786;9.250;2023-09-12T13:49:01;31.00;75.40
16267;DHT22;8241;48.786;9.250;2023-09-12T13:51:29;31.20;75.40
16267;DHT22;8241;48.786;9.250;2023-09-12T13:53:55;31.40;74.80
16267;DHT22;8241;48.786;9.250;2023-09-12T13:56:24;31.70;74.80
16267;DHT22;8241;48.786;9.250;2023-09-12T13:58:50;31.90;74.60
16267;DHT22;8241;48.786;9.250;2023-09-12T14:01:18;32.00;74.10
16267;DHT22;8241;48.786;9.250;2023-09-12T14:03:45;32.10;73.50
16267;DHT22;8241;48.786;9.250;2023-09-12T14:06:12;32.10;73.90
16267;DHT22;8241;48.786;9.250;2023-09-12T14:08:39;32.10;73.40
16267;DHT22;8241;48.786;9.250;2023-09-12T14:11:05;32.20;73.00
16267;DHT22;8241;48.786;9.250;2023-09-12T14:13:33;32.10;73.40
16267;DHT22;8241;48.786;9.250;2023-09-12T14:16:00;32.10;72.50
16267;DHT22;8241;48.786;9.250;2023-09-12T14:18:26;32.20;72.20
16267;DHT22;8241;48.786;9.250;2023-09-12T14:20:53;32.20;72.60
16267;DHT22;8241;48.786;9.250;2023-09-12T14:23:19;32.00;72.20
16267;DHT22;8241;48.786;9.250;2023-09-12T14:25:47;31.90;73.30
16267;DHT22;8241;48.786;9.250;2023-09-12T14:28:13;31.80;72.50
16267;DHT22;8241;48.786;9.250;2023-09-12T14:30:41;31.60;73.40
16267;DHT22;8241;48.786;9.250;2023-09-12T14:33:10;31.40;73.20
16267;DHT22;8241;48.786;9.250;2023-09-12T14:35:37;31.20;73.60
16267;DHT22;8241;48.786;9.250;2023-09-12T14:38:03;30.90;74.00
16267;DHT22;8241;48.786;9.250;2023-09-12T14:40:30;30.70;74.80
16267;DHT22;8241;48.786;9.250;2023-09-12T14:42:57;30.50;75.40
16267;DHT22;8241;48.786;9.250;2023-09-12T14:45:24;30.30;77.10
16267;DHT22;8241;48.786;9.250;2023-09-12T14:47:52;30.30;78.10
16267;DHT22;8241;48.786;9.250;2023-09-12T14:50:21;30.10;78.90
16267;DHT22;8241;48.786;9.250;2023-09-12T14:52:49;30.10;79.90
16267;DHT22;8241;48.786;9.250;2023-09-12T14:55:16;29.90;80.60
16267;DHT22;8241;48.786;9.250;2023-09-12T14:57:43;29.90;81.10
16267;DHT22;8241;48.786;9.250;2023-09-12T15:00:10;29.80;80.90
16267;DHT22;8241;48.786;9.250;2023-09-12T15:02:37;29.70;81.50
16267;DHT22;8241;48.786;9.250;2023-09-12T15:05:06;29.70;81.70
16267;DHT22;8241;48.786;9.250;2023-09-12T15:07:33;29.70;82.70
16267;DHT22;8241;48.786;9.250;2023-09-12T15:10:03;29.60;82.60
16267;DHT22;8241;48.786;9.250;2023-09-12T15:12:30;29.60;83.10
16267;DHT22;8241;48.786;9.250;2023-09-12T15:14:56;29.50;83.10
16267;DHT22;8241;48.786;9.250;2023-09-12T15:17:23;29.50;83.60
16267;DHT22;8241;48.786;9.250;2023-09-12T15:19:50;29.50;84.20
16267;DHT22;8241;48.786;9.250;2023-09-12T15:22:18;29.50;84.40
16267;DHT22;8241;48.786;9.250;2023-09-12T15:24:45;29.50;84.00
16267;DHT22;8241;48.786;9.250;2023-09-12T15:27:11;29.50;84.00
16267;DHT22;8241;48.786;9.250;2023-09-12T15:29:38;29.50;84.20
16267;DHT22;8241;48.786;9.250;2023-09-12T15:32:05;29.50;84.60
16267;DHT22;8241;48.786;9.250;2023-09-12T15:34:32;29.40;84.20
16267;DHT22;8241;48.786;9.250;2023-09-12T15:37:06;29.40;85.10
16267;DHT22;8241;48.786;9.250;2023-09-12T15:39:35;29.40;83.60
16267;DHT22;8241;48.786;9.250;2023-09-12T15:42:02;29.30;83.90
16267;DHT22;8241;48.786;9.250;2023-09-12T15:44:29;29.20;84.40
16267;DHT22;8241;48.786;9.250;2023-09-12T15:46:56;29.20;84.90
16267;DHT22;8241;48.786;9.250;2023-09-12T15:49:23;29.10;84.60
16267;DHT22;8241;48.786;9.250;2023-09-12T15:51:50;29.10;84.60
16267;DHT22;8241;48.786;9.250;2023-09-12T15:54:17;29.00;86.80